Time;durP1;ratioP1;P1;durP2;ratioP2;P2;SDS_P1;SDS_P2;PMS_P1;PMS_P2;Temp;Humidity;BMP_temperature;BMP_pressure;BME280_temperature;BME280_humidity;BME280_pressure;Samples;Min_cycle;Max_cycle;Signal;HPM_P1;HPM_P2
2023/02/18 00:01:09;;;;;;;8.03;3.30;;;17.00;60.50;;;;;;5045626;28;20564;-80
2023/02/18 00:03:37;;;;;;;4.93;2.83;;;17.00;60.50;;;;;;5047766;28;20475;-80
2023/02/18 00:06:15;;;;;;;6.77;3.37;;;17.00;60.50;;;;;;5048910;28;20463;-80
2023/02/18 00:08:43;;;;;;;6.70;3.77;;;17.00;60.40;;;;;;5050679;28;20482;-80
2023/02/18 00:11:11;;;;;;;8.13;3.40;;;17.00;60.60;;;;;;5045503;28;20478;-79
2023/02/18 00:13:39;;;;;;;7.30;3.20;;;17.00;60.70;;;;;;5043652;28;20478;-80
2023/02/18 00:16:09;;;;;;;3.73;2.93;;;17.00;60.60;;;;;;5042086;28;20451;-78
2023/02/18 00:18:37;;;;;;;6.73;3.57;;;16.90;60.60;;;;;;5043948;28;20443;-78
2023/02/18 00:21:06;;;;;;;7.43;3.43;;;17.00;60.80;;;;;;5047369;28;20443;-81
2023/02/18 00:23:35;;;;;;;5.63;3.40;;;17.00;60.80;;;;;;5055854;28;20470;-81
2023/02/18 00:26:05;;;;;;;5.83;3.47;;;17.00;60.60;;;;;;5054853;28;20470;-81
2023/02/18 00:28:34;;;;;;;6.63;3.63;;;17.00;60.60;;;;;;5052786;28;20529;-81
2023/02/18 00:31:06;;;;;;;5.77;3.40;;;17.00;60.80;;;;;;5051868;28;20465;-81
2023/02/18 00:33:35;;;;;;;8.63;3.57;;;17.00;60.70;;;;;;5055713;28;20542;-82
2023/02/18 00:36:04;;;;;;;12.23;3.87;;;17.00;60.70;;;;;;5055076;28;20450;-81
2023/02/18 00:38:32;;;;;;;9.63;3.53;;;17.00;60.70;;;;;;5055238;28;20451;-82
2023/02/18 00:41:01;;;;;;;7.87;3.40;;;17.00;60.70;;;;;;5055837;28;20475;-82
2023/02/18 00:43:29;;;;;;;12.00;3.70;;;17.00;60.60;;;;;;5056236;28;20481;-82
2023/02/18 00:45:58;;;;;;;4.40;2.93;;;17.00;60.70;;;;;;5058922;28;20454;-83
2023/02/18 00:48:26;;;;;;;6.83;3.17;;;16.90;60.70;;;;;;5052266;28;20477;-82
2023/02/18 00:50:54;;;;;;;7.20;4.70;;;17.00;60.70;;;;;;5049046;28;20465;-81
2023/02/18 00:53:23;;;;;;;13.60;6.07;;;17.00;60.70;;;;;;5052621;28;20470;-83
2023/02/18 00:55:51;;;;;;;11.13;5.47;;;17.00;60.80;;;;;;5056063;28;20506;-82
2023/02/18 00:58:21;;;;;;;10.70;5.13;;;17.00;60.70;;;;;;5054287;28;20458;-82
2023/02/18 01:00:49;;;;;;;11.87;6.30;;;17.00;60.70;;;;;;5060112;28;20542;-82
2023/02/18 01:03:17;;;;;;;23.77;5.80;;;17.00;60.80;;;;;;5046681;28;21055;-82
2023/02/18 01:05:46;;;;;;;15.83;6.20;;;17.00;60.90;;;;;;5043197;28;20455;-82
2023/02/18 01:08:14;;;;;;;10.27;5.20;;;17.00;60.70;;;;;;5047536;28;20601;-80
2023/02/18 01:10:43;;;;;;;10.07;5.70;;;17.00;60.80;;;;;;5043607;28;20509;-80
2023/02/18 01:13:12;;;;;;;13.63;6.13;;;17.00;60.70;;;;;;5043904;28;20549;-80
2023/02/18 01:15:42;;;;;;;10.07;5.83;;;17.00;60.90;;;;;;5039670;28;20443;-80
2023/02/18 01:18:10;;;;;;;12.43;5.70;;;17.00;60.70;;;;;;5052552;28;20450;-81
2023/02/18 01:20:38;;;;;;;8.87;5.33;;;17.00;60.90;;;;;;5054616;28;20458;-81
2023/02/18 01:23:06;;;;;;;11.23;4.70;;;17.00;60.80;;;;;;5051598;28;20473;-81
2023/02/18 01:25:35;;;;;;;10.30;5.47;;;17.00;60.80;;;;;;5044376;28;20455;-80
2023/02/18 01:28:03;;;;;;;9.90;5.20;;;17.00;60.90;;;;;;5048168;28;20478;-81
2023/02/18 01:30:33;;;;;;;9.43;5.30;;;17.00;60.80;;;;;;5053046;28;20458;-81
2023/02/18 01:33:03;;;;;;;9.40;5.23;;;17.00;60.90;;;;;;5052277;28;20481;-81
2023/02/18 01:35:57;;;;;;;12.00;5.33;;;17.00;61.00;;;;;;5050266;28;20462;-81
2023/02/18 01:38:29;;;;;;;6.63;4.60;;;17.00;60.80;;;;;;5048527;28;20461;-82
2023/02/18 01:41:15;;;;;;;9.90;4.90;;;17.00;60.90;;;;;;5054405;28;20474;-81
2023/02/18 01:48:05;;;;;;;14.13;4.50;;;17.10;60.90;;;;;;5054431;28;20446;-82
2023/02/18 01:58:44;;;;;;;7.80;4.60;;;17.00;61.10;;;;;;5034518;28;20455;-81
2023/02/18 02:01:47;;;;;;;7.13;4.47;;;16.90;61.10;;;;;;5018057;28;20526;-82
2023/02/18 02:04:15;;;;;;;11.20;5.60;;;16.90;61.20;;;;;;5065516;28;20561;-82
2023/02/18 02:06:43;;;;;;;8.30;4.30;;;16.90;61.20;;;;;;5093695;28;20513;-82
2023/02/18 02:09:13;;;;;;;9.63;4.43;;;16.90;61.20;;;;;;5092954;28;20452;-81
2023/02/18 02:12:21;;;;;;;10.73;4.37;;;16.90;61.20;;;;;;5087816;28;20442;-81
2023/02/18 02:14:59;;;;;;;8.87;4.90;;;17.00;61.00;;;;;;5091927;28;20437;-83
2023/02/18 02:17:39;;;;;;;7.53;4.13;;;16.90;61.20;;;;;;5105841;28;20455;-82
2023/02/18 02:20:37;;;;;;;7.23;4.07;;;17.00;61.20;;;;;;5103923;28;20459;-82
2023/02/18 02:23:40;;;;;;;6.17;4.00;;;17.00;61.10;;;;;;5071767;28;20484;-83
2023/02/18 02:26:23;;;;;;;11.43;4.27;;;17.00;61.20;;;;;;5104116;28;20459;-82
2023/02/18 02:29:20;;;;;;;8.67;4.50;;;17.00;61.20;;;;;;5100887;28;20461;-83
2023/02/18 02:32:21;;;;;;;11.50;4.17;;;17.00;61.20;;;;;;5103309;28;20448;-81
2023/02/18 02:34:55;;;;;;;8.47;4.50;;;16.90;61.20;;;;;;5097282;28;20444;-80
2023/02/18 02:37:26;;;;;;;8.93;4.50;;;16.90;61.10;;;;;;5099024;28;20933;-80
2023/02/18 02:39:59;;;;;;;6.13;3.83;;;16.90;61.10;;;;;;5098878;28;20521;-81
2023/02/18 02:42:35;;;;;;;7.50;4.47;;;16.90;61.10;;;;;;5091315;28;20486;-80
2023/02/18 02:45:06;;;;;;;9.00;4.30;;;16.90;61.20;;;;;;5100529;28;20468;-80
2023/02/18 02:47:36;;;;;;;10.50;3.80;;;16.90;61.10;;;;;;5092702;28;20454;-81
2023/02/18 02:50:07;;;;;;;6.67;4.07;;;17.00;61.20;;;;;;5098050;28;20464;-81
2023/02/18 02:52:37;;;;;;;6.80;3.60;;;17.00;61.20;;;;;;5097132;28;20492;-80
2023/02/18 02:55:06;;;;;;;6.43;3.40;;;17.00;61.00;;;;;;5100420;28;20453;-81
2023/02/18 02:57:49;;;;;;;7.80;4.00;;;17.00;61.10;;;;;;5094758;28;20460;-82
2023/02/18 03:00:18;;;;;;;6.67;3.77;;;17.00;61.10;;;;;;5099609;28;20458;-80
2023/02/18 03:02:56;;;;;;;5.87;3.77;;;17.00;61.10;;;;;;5097114;28;20480;-81
2023/02/18 03:05:30;;;;;;;9.40;3.77;;;17.00;61.20;;;;;;5095940;28;20472;-81
2023/02/18 03:08:13;;;;;;;9.33;3.63;;;17.00;61.20;;;;;;5096240;28;20450;-81
2023/02/18 03:10:46;;;;;;;5.40;3.27;;;17.00;61.00;;;;;;5098927;28;20992;-80
2023/02/18 03:13:18;;;;;;;6.37;3.53;;;17.00;61.20;;;;;;5091707;28;20472;-81
2023/02/18 03:15:49;;;;;;;6.73;3.63;;;17.00;61.20;;;;;;5091859;28;20459;-80
2023/02/18 03:18:19;;;;;;;6.87;3.53;;;17.00;61.00;;;;;;5093932;28;20452;-81
2023/02/18 03:20:51;;;;;;;10.73;3.93;;;17.00;61.40;;;;;;5098850;28;20445;-79
2023/02/18 03:23:22;;;;;;;6.00;3.20;;;17.00;61.30;;;;;;5097049;28;20473;-81
2023/02/18 03:25:49;;;;;;;6.40;3.30;;;17.00;61.20;;;;;;5093938;28;20461;-81
2023/02/18 03:28:18;;;;;;;6.73;3.37;;;17.00;61.10;;;;;;5098224;28;20472;-81
2023/02/18 03:30:47;;;;;;;7.90;3.30;;;17.00;61.10;;;;;;5097330;28;20448;-80
2023/02/18 03:33:17;;;;;;;6.43;3.80;;;17.00;61.00;;;;;;5096327;28;20484;-80
2023/02/18 03:35:45;;;;;;;13.50;3.63;;;17.00;61.30;;;;;;5094483;28;20448;-80
2023/02/18 03:38:15;;;;;;;7.03;3.63;;;17.00;61.30;;;;;;5098131;28;20456;-81
2023/02/18 03:40:43;;;;;;;5.37;3.43;;;17.00;61.30;;;;;;5094554;28;20457;-81
2023/02/18 03:43:11;;;;;;;7.13;3.73;;;17.00;61.20;;;;;;5097919;28;20467;-80
2023/02/18 03:45:39;;;;;;;7.10;3.40;;;17.00;61.10;;;;;;5096668;28;20472;-80
2023/02/18 03:48:08;;;;;;;3.87;2.90;;;17.00;61.30;;;;;;5098567;28;20452;-81
2023/02/18 03:50:36;;;;;;;5.80;3.47;;;17.00;61.20;;;;;;5098687;28;20452;-80
2023/02/18 03:53:04;;;;;;;4.97;3.17;;;17.00;61.30;;;;;;5097595;28;20480;-80
2023/02/18 03:55:33;;;;;;;5.77;3.17;;;17.00;61.10;;;;;;5096807;28;20457;-81
2023/02/18 03:58:01;;;;;;;12.10;3.27;;;17.00;61.10;;;;;;5099122;28;20448;-81
2023/02/18 04:00:29;;;;;;;5.43;3.10;;;17.00;61.20;;;;;;5098495;28;20457;-81
2023/02/18 04:02:57;;;;;;;7.07;3.27;;;17.00;61.30;;;;;;5097452;28;20461;-81
2023/02/18 04:05:25;;;;;;;6.80;3.07;;;17.00;61.30;;;;;;5096650;28;20468;-81
2023/02/18 04:07:53;;;;;;;7.60;3.23;;;17.00;61.10;;;;;;5097210;28;20456;-81
2023/02/18 04:10:21;;;;;;;7.17;3.10;;;17.00;61.20;;;;;;5101456;28;20426;-82
2023/02/18 04:12:51;;;;;;;8.83;3.80;;;17.00;61.20;;;;;;5093348;28;20457;-81
2023/02/18 04:15:19;;;;;;;7.67;3.60;;;17.00;61.00;;;;;;5088127;28;20988;-81
2023/02/18 04:17:47;;;;;;;3.87;2.77;;;17.00;61.10;;;;;;5089191;28;20447;-80
2023/02/18 04:20:15;;;;;;;3.97;3.23;;;17.00;60.90;;;;;;5087515;28;20446;-79
2023/02/18 04:22:43;;;;;;;6.23;3.30;;;17.00;61.20;;;;;;5090313;28;20484;-80
2023/02/18 04:25:11;;;;;;;5.67;3.20;;;17.00;61.00;;;;;;5084619;28;20461;-80
2023/02/18 04:27:39;;;;;;;3.80;2.70;;;16.90;60.90;;;;;;5093438;28;20465;-80
2023/02/18 04:30:10;;;;;;;6.43;3.27;;;17.00;60.70;;;;;;5090335;28;20521;-80
2023/02/18 04:32:38;;;;;;;4.70;2.90;;;17.00;61.00;;;;;;5095188;28;20474;-81
2023/02/18 04:35:06;;;;;;;5.10;2.77;;;17.00;61.00;;;;;;5094587;28;20449;-80
2023/02/18 04:37:34;;;;;;;4.67;2.83;;;17.00;61.00;;;;;;5100465;28;20458;-80
2023/02/18 04:40:03;;;;;;;4.67;2.53;;;16.90;60.90;;;;;;5095116;28;20453;-80
2023/02/18 04:42:31;;;;;;;5.23;3.03;;;16.90;61.00;;;;;;5097306;28;20472;-81
2023/02/18 04:44:59;;;;;;;5.90;3.10;;;16.90;61.00;;;;;;5098243;28;20448;-82
2023/02/18 04:47:29;;;;;;;6.13;2.77;;;17.00;61.20;;;;;;5096181;28;20456;-81
2023/02/18 04:49:57;;;;;;;8.13;3.10;;;17.00;61.00;;;;;;5098475;28;20452;-80
2023/02/18 04:52:25;;;;;;;13.47;3.50;;;16.90;61.10;;;;;;5098953;28;20477;-81
2023/02/18 04:54:53;;;;;;;3.43;2.50;;;17.00;61.10;;;;;;5101114;28;20464;-81
2023/02/18 04:57:21;;;;;;;6.00;2.90;;;17.00;61.00;;;;;;5103214;28;20453;-82
2023/02/18 04:59:49;;;;;;;3.60;2.20;;;16.90;61.10;;;;;;5103178;28;20455;-81
2023/02/18 05:02:17;;;;;;;8.50;3.10;;;16.90;60.90;;;;;;5102606;28;20470;-80
2023/02/18 05:04:46;;;;;;;6.60;3.07;;;16.90;61.00;;;;;;5102392;28;20445;-81
2023/02/18 05:07:14;;;;;;;5.40;2.50;;;16.90;61.00;;;;;;5104040;28;20474;-82
2023/02/18 05:09:42;;;;;;;4.30;2.67;;;16.90;61.00;;;;;;5097249;28;20455;-81
2023/02/18 05:12:10;;;;;;;5.07;2.87;;;16.90;61.00;;;;;;5097582;28;20453;-81
2023/02/18 05:14:39;;;;;;;6.97;2.70;;;16.90;60.90;;;;;;5099527;28;20452;-81
2023/02/18 05:17:06;;;;;;;6.17;2.90;;;16.90;60.90;;;;;;5103835;28;20447;-81
2023/02/18 05:19:34;;;;;;;6.13;2.87;;;16.90;60.80;;;;;;5097186;28;20449;-81
2023/02/18 05:22:04;;;;;;;6.60;2.50;;;16.90;61.00;;;;;;5097083;28;20449;-80
2023/02/18 05:24:32;;;;;;;8.00;2.87;;;16.90;60.90;;;;;;5093366;28;20449;-80
2023/02/18 05:27:00;;;;;;;4.30;3.10;;;16.90;61.00;;;;;;5102641;28;20468;-81
2023/02/18 05:29:28;;;;;;;3.90;2.77;;;16.90;60.90;;;;;;5092709;28;20466;-81
2023/02/18 05:31:56;;;;;;;4.63;2.70;;;16.90;60.80;;;;;;5101300;28;20528;-81
2023/02/18 05:34:25;;;;;;;7.20;2.73;;;16.90;60.90;;;;;;5094492;28;20456;-80
2023/02/18 05:36:53;;;;;;;3.43;2.43;;;16.90;60.80;;;;;;5100940;28;20455;-81
2023/02/18 05:39:22;;;;;;;5.90;2.47;;;16.90;61.00;;;;;;5095552;28;20452;-81
2023/02/18 05:41:50;;;;;;;5.60;2.30;;;16.90;60.90;;;;;;5100472;28;20459;-81
2023/02/18 05:44:31;;;;;;;5.27;2.47;;;16.90;60.90;;;;;;5098967;28;20518;-82
2023/02/18 05:46:59;;;;;;;4.50;2.63;;;16.90;60.90;;;;;;5097901;28;20468;-80
2023/02/18 05:49:27;;;;;;;4.33;2.50;;;16.90;61.00;;;;;;5095232;28;20453;-80
2023/02/18 05:51:56;;;;;;;4.07;2.60;;;16.90;60.90;;;;;;5098074;28;20520;-80
2023/02/18 05:54:25;;;;;;;8.30;3.00;;;16.90;61.00;;;;;;5096277;28;20440;-79
2023/02/18 05:56:53;;;;;;;4.33;2.57;;;16.90;60.80;;;;;;5100214;28;20455;-80
2023/02/18 05:59:21;;;;;;;5.00;2.70;;;16.90;61.00;;;;;;5096376;28;20522;-80
2023/02/18 06:01:49;;;;;;;6.37;2.83;;;16.90;61.00;;;;;;5094550;28;20536;-79
2023/02/18 06:04:17;;;;;;;6.00;2.87;;;16.90;61.10;;;;;;5099465;28;20473;-80
2023/02/18 06:06:46;;;;;;;5.00;2.73;;;16.90;60.90;;;;;;5096464;28;20503;-79
2023/02/18 06:09:14;;;;;;;5.73;2.60;;;17.00;61.00;;;;;;5097789;28;20452;-79
2023/02/18 06:11:43;;;;;;;4.77;2.40;;;16.90;60.90;;;;;;5091521;28;20459;-80
2023/02/18 06:14:11;;;;;;;6.90;2.43;;;16.90;60.90;;;;;;5102156;28;20474;-81
2023/02/18 06:16:39;;;;;;;3.00;2.70;;;16.90;61.00;;;;;;5101820;28;20452;-80
2023/02/18 06:19:07;;;;;;;4.80;2.63;;;16.90;60.90;;;;;;5098947;28;20512;-81
2023/02/18 06:21:35;;;;;;;6.03;2.87;;;16.90;61.00;;;;;;5100250;28;20448;-81
2023/02/18 06:24:03;;;;;;;2.80;2.40;;;17.00;61.00;;;;;;5097011;28;20475;-79
2023/02/18 06:26:31;;;;;;;7.90;2.70;;;16.90;60.70;;;;;;5096947;28;20480;-80
2023/02/18 06:29:01;;;;;;;5.60;2.37;;;17.00;60.90;;;;;;5099562;28;20453;-79
2023/02/18 06:31:30;;;;;;;6.20;2.97;;;16.90;60.70;;;;;;5096598;28;20451;-81
2023/02/18 06:33:58;;;;;;;4.40;2.47;;;16.90;60.90;;;;;;5097361;28;20568;-80
2023/02/18 06:36:26;;;;;;;5.10;2.60;;;16.90;61.00;;;;;;5096235;28;20451;-80
2023/02/18 06:38:56;;;;;;;7.03;3.07;;;16.90;61.00;;;;;;5099362;28;20524;-79
2023/02/18 06:41:24;;;;;;;6.10;2.70;;;16.90;60.80;;;;;;5096258;28;20465;-79
2023/02/18 06:43:52;;;;;;;3.80;2.43;;;16.90;61.00;;;;;;5093425;28;20469;-80
2023/02/18 06:46:22;;;;;;;3.20;2.20;;;16.90;61.00;;;;;;5093125;28;20469;-80
2023/02/18 06:48:50;;;;;;;3.77;2.60;;;16.90;60.80;;;;;;5094932;28;20528;-80
2023/02/18 06:51:18;;;;;;;3.97;2.53;;;16.90;60.70;;;;;;5097652;28;20540;-80
2023/02/18 06:53:46;;;;;;;6.50;2.87;;;16.90;60.90;;;;;;5096321;28;20472;-80
2023/02/18 06:56:14;;;;;;;4.07;2.40;;;16.90;60.80;;;;;;5094523;28;20445;-80
2023/02/18 06:58:42;;;;;;;6.00;2.90;;;16.90;60.70;;;;;;5092665;28;20463;-80
2023/02/18 07:01:11;;;;;;;3.67;2.33;;;16.90;60.90;;;;;;5091281;28;20459;-80
2023/02/18 07:03:40;;;;;;;5.23;2.87;;;16.90;60.80;;;;;;5096537;28;20461;-78
2023/02/18 07:06:09;;;;;;;4.20;2.50;;;16.90;60.70;;;;;;5092275;28;20457;-79
2023/02/18 07:08:37;;;;;;;4.20;3.00;;;16.90;60.90;;;;;;5089921;28;20473;-79
2023/02/18 07:11:06;;;;;;;5.27;2.90;;;16.90;60.80;;;;;;5089508;28;20521;-79
2023/02/18 07:13:34;;;;;;;4.63;2.97;;;16.90;60.70;;;;;;5088176;28;20491;-80
2023/02/18 07:16:02;;;;;;;4.47;3.30;;;16.90;60.80;;;;;;5095663;28;20444;-79
2023/02/18 07:18:30;;;;;;;4.30;3.10;;;16.90;60.80;;;;;;5097569;28;20449;-80
2023/02/18 07:21:00;;;;;;;4.57;3.20;;;16.90;60.70;;;;;;5099120;28;20987;-80
2023/02/18 07:23:28;;;;;;;6.10;2.93;;;16.90;60.60;;;;;;5098368;28;20464;-80
2023/02/18 07:26:03;;;;;;;5.37;3.50;;;16.90;60.70;;;;;;5096850;28;20453;-80
2023/02/18 07:28:32;;;;;;;5.10;3.23;;;16.90;60.70;;;;;;5097279;28;20499;-79
2023/02/18 07:31:00;;;;;;;4.97;3.07;;;16.90;60.80;;;;;;5096827;28;20449;-79
2023/02/18 07:33:28;;;;;;;5.77;3.33;;;16.90;60.60;;;;;;5097610;28;20472;-80
2023/02/18 07:35:56;;;;;;;3.30;3.00;;;16.90;60.60;;;;;;5093267;28;20445;-80
2023/02/18 07:38:26;;;;;;;4.70;3.30;;;16.90;60.60;;;;;;5094830;28;20453;-80
2023/02/18 07:40:55;;;;;;;6.10;4.00;;;16.90;60.50;;;;;;5098891;28;20452;-80
2023/02/18 07:43:23;;;;;;;5.73;3.70;;;16.90;60.70;;;;;;5097733;28;20464;-81
2023/02/18 07:45:51;;;;;;;6.07;3.80;;;17.00;60.70;;;;;;5098452;28;20544;-81
2023/02/18 07:48:19;;;;;;;4.43;3.50;;;17.00;60.60;;;;;;5095642;28;20535;-81
2023/02/18 07:50:47;;;;;;;6.47;3.77;;;17.00;60.70;;;;;;5093465;28;20456;-80
2023/02/18 07:53:15;;;;;;;4.90;3.80;;;17.00;60.70;;;;;;5091540;28;20461;-79
2023/02/18 07:55:51;;;;;;;7.60;4.40;;;17.00;60.70;;;;;;5090442;28;20457;-80
2023/02/18 07:58:20;;;;;;;4.63;3.50;;;17.00;60.70;;;;;;5095757;28;20452;-79
2023/02/18 08:00:49;;;;;;;5.67;3.80;;;17.00;60.50;;;;;;5094259;28;20449;-80
2023/02/18 08:03:17;;;;;;;4.10;3.70;;;17.00;60.50;;;;;;5096324;28;20543;-80
2023/02/18 08:05:45;;;;;;;7.07;3.83;;;17.10;60.80;;;;;;5090515;28;20454;-80
2023/02/18 08:08:13;;;;;;;6.50;4.30;;;17.10;60.70;;;;;;5090315;28;20465;-80
2023/02/18 08:10:42;;;;;;;4.73;3.63;;;17.10;60.70;;;;;;5090610;28;20441;-80
2023/02/18 08:13:11;;;;;;;4.00;3.33;;;17.10;61.20;;;;;;5087547;28;20548;-80
2023/02/18 08:15:39;;;;;;;5.20;3.43;;;17.10;60.40;;;;;;5094941;28;20451;-80
2023/02/18 08:18:07;;;;;;;9.30;4.07;;;17.10;60.60;;;;;;5093122;28;20541;-79
2023/02/18 08:20:36;;;;;;;5.77;3.80;;;17.10;60.40;;;;;;5089379;28;20487;-80
2023/02/18 08:23:05;;;;;;;5.67;3.47;;;17.20;60.50;;;;;;5090914;28;20496;-79
2023/02/18 08:25:33;;;;;;;4.40;2.97;;;17.20;60.60;;;;;;5084162;28;20476;-79
2023/02/18 08:28:01;;;;;;;4.47;3.70;;;17.20;60.50;;;;;;5095857;28;20473;-78
2023/02/18 08:30:30;;;;;;;4.43;3.33;;;17.30;60.50;;;;;;5093755;28;20449;-79
2023/02/18 08:32:58;;;;;;;4.30;2.77;;;17.30;60.50;;;;;;5089113;28;20469;-80
2023/02/18 08:35:26;;;;;;;2.97;2.70;;;17.30;60.40;;;;;;5092615;28;20453;-79
2023/02/18 08:37:54;;;;;;;3.93;3.00;;;17.30;60.40;;;;;;5089741;28;20451;-79
2023/02/18 08:40:24;;;;;;;3.37;3.00;;;17.40;60.40;;;;;;5082120;28;20457;-78
2023/02/18 08:42:52;;;;;;;4.37;2.90;;;17.40;60.20;;;;;;5087959;28;20472;-79
2023/02/18 08:45:20;;;;;;;3.63;2.83;;;17.40;60.30;;;;;;5090389;28;20573;-79
2023/02/18 08:47:49;;;;;;;2.97;2.70;;;17.40;60.30;;;;;;5087473;28;20468;-79
2023/02/18 08:50:37;;;;;;;2.57;2.37;;;17.40;60.30;;;;;;5089278;28;20452;-80
2023/02/18 08:53:05;;;;;;;4.60;2.80;;;17.40;60.40;;;;;;5093625;28;20533;-80
2023/02/18 08:55:33;;;;;;;3.20;2.47;;;17.40;60.30;;;;;;5091163;28;20484;-80
2023/02/18 08:58:01;;;;;;;2.67;2.33;;;17.40;60.40;;;;;;5092478;28;20484;-80
2023/02/18 09:00:30;;;;;;;3.63;2.70;;;17.50;60.40;;;;;;5087827;28;20543;-80
2023/02/18 09:02:59;;;;;;;2.27;2.17;;;17.50;60.30;;;;;;5091572;28;20545;-81
2023/02/18 09:05:27;;;;;;;3.40;2.53;;;17.50;60.20;;;;;;5093300;28;20460;-79
2023/02/18 09:07:55;;;;;;;3.10;2.47;;;17.50;60.20;;;;;;5092005;28;20499;-80
2023/02/18 09:10:23;;;;;;;2.40;2.30;;;17.50;60.10;;;;;;5092377;28;20456;-80
2023/02/18 09:12:51;;;;;;;4.07;2.27;;;17.50;60.20;;;;;;5090332;28;20469;-81
2023/02/18 09:15:20;;;;;;;2.10;1.97;;;17.60;60.40;;;;;;5092514;28;20440;-81
2023/02/18 09:17:48;;;;;;;3.63;2.33;;;17.60;60.40;;;;;;5090154;28;20448;-80
2023/02/18 09:20:17;;;;;;;3.70;2.27;;;17.60;60.30;;;;;;5091734;28;20444;-80
2023/02/18 09:22:45;;;;;;;2.83;2.10;;;17.60;61.00;;;;;;5087491;28;20476;-79
2023/02/18 09:25:13;;;;;;;2.80;2.50;;;17.60;60.30;;;;;;5091114;28;20452;-78
2023/02/18 09:27:43;;;;;;;2.47;1.97;;;17.60;60.20;;;;;;5080913;28;20477;-80
2023/02/18 09:30:14;;;;;;;2.10;2.00;;;17.60;60.20;;;;;;5088795;28;20461;-79
2023/02/18 09:32:42;;;;;;;2.27;2.07;;;17.70;60.50;;;;;;5089064;28;20464;-79
2023/02/18 09:35:10;;;;;;;2.07;1.93;;;17.70;60.30;;;;;;5090889;28;20456;-80
2023/02/18 09:37:40;;;;;;;2.10;1.97;;;17.70;60.30;;;;;;5086416;28;20574;-79
2023/02/18 09:40:10;;;;;;;2.17;2.07;;;17.70;60.30;;;;;;5092357;28;20460;-79
2023/02/18 09:42:40;;;;;;;2.30;1.90;;;17.70;60.40;;;;;;5085780;28;20556;-80
2023/02/18 09:45:11;;;;;;;1.80;1.70;;;17.70;60.60;;;;;;5088396;28;20456;-80
2023/02/18 09:47:41;;;;;;;2.60;2.40;;;17.70;60.40;;;;;;5087592;28;20453;-80
2023/02/18 09:50:13;;;;;;;2.57;2.37;;;17.70;60.40;;;;;;5092157;28;20452;-80
2023/02/18 09:52:42;;;;;;;2.20;2.00;;;17.80;60.40;;;;;;5088116;28;20472;-80
2023/02/18 09:55:19;;;;;;;3.93;2.20;;;17.80;60.30;;;;;;5089456;28;20449;-79
2023/02/18 09:57:49;;;;;;;2.00;1.90;;;17.80;60.40;;;;;;5088520;28;20457;-80
2023/02/18 10:00:19;;;;;;;2.13;1.93;;;17.80;60.40;;;;;;5087404;28;20449;-80
2023/02/18 10:02:53;;;;;;;3.60;2.17;;;17.90;60.40;;;;;;5089191;28;20481;-80
2023/02/18 10:05:21;;;;;;;2.63;2.30;;;17.90;60.60;;;;;;5089365;28;20460;-80
2023/02/18 10:07:51;;;;;;;3.50;2.57;;;17.90;60.50;;;;;;5091805;28;20445;-79
2023/02/18 10:10:21;;;;;;;3.37;2.27;;;17.90;60.40;;;;;;5091524;28;20448;-79
2023/02/18 10:12:49;;;;;;;2.50;2.20;;;18.00;60.40;;;;;;5090285;28;20446;-79
2023/02/18 10:15:19;;;;;;;3.47;2.50;;;18.00;60.50;;;;;;5096608;28;20459;-79
2023/02/18 10:17:47;;;;;;;2.90;2.70;;;18.00;60.30;;;;;;5097550;28;20540;-80
2023/02/18 10:20:16;;;;;;;2.13;1.90;;;18.00;60.50;;;;;;5091723;28;20447;-80
2023/02/18 10:22:44;;;;;;;3.10;2.23;;;18.00;60.50;;;;;;5097462;28;20456;-80
2023/02/18 10:25:17;;;;;;;2.30;2.20;;;18.00;60.60;;;;;;5096143;28;20460;-81
2023/02/18 10:27:45;;;;;;;2.50;2.37;;;17.90;60.50;;;;;;5105769;28;20461;-81
2023/02/18 10:30:21;;;;;;;3.00;2.80;;;18.00;60.50;;;;;;5102222;28;20472;-80
2023/02/18 10:32:49;;;;;;;2.40;2.20;;;18.00;60.70;;;;;;5096755;28;20492;-80
2023/02/18 10:35:19;;;;;;;2.57;2.27;;;18.00;60.30;;;;;;5097561;28;20464;-80
2023/02/18 10:37:56;;;;;;;1.90;1.80;;;18.00;60.70;;;;;;5094832;28;20523;-81
2023/02/18 10:40:27;;;;;;;2.10;1.90;;;18.00;60.50;;;;;;5097578;28;20461;-79
2023/02/18 10:43:01;;;;;;;2.60;2.40;;;18.00;60.70;;;;;;5095253;28;20486;-80
2023/02/18 10:45:34;;;;;;;2.63;2.43;;;18.00;60.50;;;;;;5093230;28;20456;-80
2023/02/18 10:48:12;;;;;;;3.47;2.13;;;18.10;60.70;;;;;;5093267;28;20459;-80
2023/02/18 10:50:40;;;;;;;2.20;2.03;;;18.10;60.70;;;;;;5090587;28;20457;-79
2023/02/18 10:53:11;;;;;;;2.30;2.10;;;18.10;60.80;;;;;;5095902;28;20478;-79
2023/02/18 10:55:41;;;;;;;3.97;2.30;;;18.10;60.70;;;;;;5094674;28;20449;-79
2023/02/18 10:58:27;;;;;;;2.50;2.30;;;18.10;60.80;;;;;;5094633;28;20475;-79
2023/02/18 11:00:55;;;;;;;3.23;1.90;;;18.10;60.60;;;;;;5094135;28;20463;-79
2023/02/18 11:03:23;;;;;;;1.70;1.60;;;18.10;60.90;;;;;;5094319;28;20469;-79
2023/02/18 11:05:52;;;;;;;2.20;2.00;;;18.10;60.80;;;;;;5091819;28;20465;-79
2023/02/18 11:08:22;;;;;;;2.30;2.10;;;18.10;60.70;;;;;;5088454;28;20437;-79
2023/02/18 11:10:51;;;;;;;2.43;2.20;;;18.10;60.50;;;;;;5083833;28;20457;-79
2023/02/18 11:13:25;;;;;;;1.77;1.67;;;18.10;60.70;;;;;;5092512;28;20461;-79
2023/02/18 11:15:57;;;;;;;1.87;1.77;;;18.10;60.90;;;;;;5090154;28;20449;-80
2023/02/18 11:18:37;;;;;;;2.13;1.83;;;18.10;60.80;;;;;;5093692;28;20445;-79
2023/02/18 11:21:06;;;;;;;2.33;2.10;;;18.10;61.00;;;;;;5094375;28;20444;-79
2023/02/18 11:23:46;;;;;;;2.20;2.10;;;18.10;60.90;;;;;;5089240;28;20548;-79
2023/02/18 11:26:15;;;;;;;2.73;2.03;;;18.20;61.10;;;;;;5088384;28;20449;-79
2023/02/18 11:28:45;;;;;;;2.20;2.10;;;18.10;60.90;;;;;;5088243;28;20469;-79
2023/02/18 11:31:23;;;;;;;1.73;1.63;;;18.10;60.90;;;;;;5095323;28;20452;-81
2023/02/18 11:33:52;;;;;;;1.93;1.83;;;18.20;60.90;;;;;;5094531;28;20460;-81
2023/02/18 11:36:23;;;;;;;2.07;1.97;;;18.10;60.90;;;;;;5092200;28;20445;-81
2023/02/18 11:38:54;;;;;;;3.00;2.00;;;18.10;61.00;;;;;;5091409;28;20446;-79
2023/02/18 11:41:32;;;;;;;2.27;1.80;;;18.20;61.00;;;;;;5089496;28;20459;-80
2023/02/18 11:44:00;;;;;;;3.07;1.70;;;18.20;61.20;;;;;;5090175;28;20473;-80
2023/02/18 11:46:28;;;;;;;3.07;2.00;;;18.20;61.20;;;;;;5089892;28;20520;-80
2023/02/18 11:48:57;;;;;;;3.70;1.57;;;18.20;61.20;;;;;;5095520;28;20468;-80
2023/02/18 11:51:35;;;;;;;2.10;1.90;;;18.30;61.20;;;;;;5097802;28;20468;-82
2023/02/18 11:54:05;;;;;;;1.87;1.67;;;18.30;60.90;;;;;;5093051;28;20500;-81
2023/02/18 11:56:35;;;;;;;1.70;1.60;;;18.30;60.90;;;;;;5093995;28;20485;-81
2023/02/18 11:59:04;;;;;;;2.20;1.77;;;18.30;61.20;;;;;;5095495;28;20514;-83
2023/02/18 12:01:41;;;;;;;2.13;1.93;;;18.30;61.20;;;;;;5093293;28;20544;-82
2023/02/18 12:04:12;;;;;;;1.80;1.70;;;18.30;61.10;;;;;;5093075;28;20490;-82
2023/02/18 12:06:45;;;;;;;2.63;2.07;;;18.30;61.00;;;;;;5090708;28;20437;-80
2023/02/18 12:09:23;;;;;;;1.83;1.73;;;18.30;61.10;;;;;;5090596;28;20481;-82
2023/02/18 12:11:53;;;;;;;2.97;1.50;;;18.30;61.20;;;;;;5093965;28;20449;-80
2023/02/18 12:14:21;;;;;;;1.83;1.70;;;18.30;61.20;;;;;;5094178;28;20470;-81
2023/02/18 12:17:09;;;;;;;4.10;2.10;;;18.30;60.90;;;;;;5091129;28;20441;-79
2023/02/18 12:20:00;;;;;;;7.60;2.30;;;18.30;61.10;;;;;;5090584;28;20479;-84
2023/02/18 12:22:32;;;;;;;19.53;3.40;;;17.80;66.00;;;;;;5087101;28;20461;-81
2023/02/18 12:25:08;;;;;;;6.10;2.63;;;15.90;73.10;;;;;;5088755;28;20528;-83
2023/02/18 12:27:41;;;;;;;11.87;2.87;;;15.20;77.40;;;;;;5090472;28;20475;-82
2023/02/18 12:30:44;;;;;;;9.27;3.40;;;15.00;84.50;;;;;;5091751;28;20468;-84
2023/02/18 12:33:16;;;;;;;14.93;4.10;;;14.50;90.20;;;;;;5067175;28;20474;-82
2023/02/18 12:35:50;;;;;;;9.93;3.67;;;14.50;92.20;;;;;;5090088;28;20456;-82
2023/02/18 12:38:37;;;;;;;15.57;4.10;;;14.60;92.00;;;;;;5087935;28;20459;-83
2023/02/18 12:41:13;;;;;;;12.00;3.73;;;14.30;93.60;;;;;;5081982;28;20453;-83
2023/02/18 12:43:47;;;;;;;9.73;3.00;;;13.90;95.90;;;;;;5091758;28;20475;-80
2023/02/18 12:46:32;;;;;;;8.03;2.83;;;14.80;98.60;;;;;;5091402;28;20448;-81
2023/02/18 12:49:19;;;;;;;8.57;2.47;;;15.70;96.00;;;;;;5094936;28;20452;-81
2023/02/18 12:51:57;;;;;;;13.00;2.90;;;16.30;93.20;;;;;;5091316;28;20460;-80
2023/02/18 12:54:47;;;;;;;24.87;3.33;;;16.80;92.80;;;;;;5085115;28;20460;-80
2023/02/18 12:57:21;;;;;;;21.97;3.70;;;17.60;91.00;;;;;;5084504;28;20467;-80
2023/02/18 13:00:11;;;;;;;34.53;4.80;;;18.20;88.70;;;;;;5092390;28;20455;-83
2023/02/18 13:02:57;;;;;;;29.13;4.63;;;18.70;85.50;;;;;;5095749;28;20484;-83
2023/02/18 13:05:29;;;;;;;60.20;5.23;;;19.10;83.60;;;;;;5095496;28;20448;-82
2023/02/18 13:08:15;;;;;;;32.30;5.27;;;19.50;83.80;;;;;;5099701;28;20449;-81
2023/02/18 13:10:48;;;;;;;24.80;4.57;;;19.60;84.00;;;;;;5098832;28;20479;-83
2023/02/18 13:13:20;;;;;;;25.30;4.03;;;19.70;84.40;;;;;;5096057;28;20495;-82
2023/02/18 13:15:51;;;;;;;20.17;4.50;;;19.80;84.70;;;;;;5088123;28;20480;-80
2023/02/18 13:18:23;;;;;;;37.17;5.40;;;20.00;85.50;;;;;;5099930;28;20719;-83